createdAt,value
2019-01-04T00:00:13.402Z,1035.55
2019-01-04T00:01:13.239Z,1035.58
2019-01-04T00:02:13.151Z,1035.61
2019-01-04T00:03:13.062Z,1035.58
2019-01-04T00:04:12.983Z,1035.64
2019-01-04T00:05:12.886Z,1035.63
2019-01-04T00:06:12.810Z,1035.69
2019-01-04T00:07:12.720Z,1035.69
2019-01-04T00:08:12.625Z,1035.69
2019-01-04T00:09:12.549Z,1035.69
2019-01-04T00:10:12.466Z,1035.61
2019-01-04T00:11:12.378Z,1035.58
2019-01-04T00:12:12.277Z,1035.61
2019-01-04T00:13:12.197Z,1035.60
2019-01-04T00:14:12.103Z,1035.57
2019-01-04T00:15:12.023Z,1035.59
2019-01-04T00:16:11.947Z,1035.61
2019-01-04T00:17:11.848Z,1035.60
2019-01-04T00:18:11.757Z,1035.59
2019-01-04T00:19:11.675Z,1035.57
2019-01-04T00:20:11.588Z,1035.58
2019-01-04T00:21:11.509Z,1035.54
2019-01-04T00:22:11.409Z,1035.55
2019-01-04T00:23:11.330Z,1035.53
2019-01-04T00:24:11.237Z,1035.48
2019-01-04T00:25:11.155Z,1035.53
2019-01-04T00:26:11.082Z,1035.50
2019-01-04T00:27:10.976Z,1035.56
2019-01-04T00:28:10.890Z,1035.52
2019-01-04T00:29:10.811Z,1035.57
2019-01-04T00:30:10.713Z,1035.59
2019-01-04T00:31:10.653Z,1035.59
2019-01-04T00:32:10.544Z,1035.60
2019-01-04T00:33:10.456Z,1035.66
2019-01-04T00:34:10.378Z,1035.69
2019-01-04T00:35:10.284Z,1035.69
2019-01-04T00:36:10.210Z,1035.77
2019-01-04T00:37:10.116Z,1035.77
2019-01-04T00:38:10.022Z,1035.79
2019-01-04T00:39:09.938Z,1035.79
2019-01-04T00:40:09.868Z,1035.83
2019-01-04T00:41:09.790Z,1035.80
2019-01-04T00:42:09.685Z,1035.78
2019-01-04T00:43:09.591Z,1035.82
2019-01-04T00:44:09.526Z,1035.82
2019-01-04T00:45:09.419Z,1035.81
2019-01-04T00:46:09.373Z,1035.81
2019-01-04T00:47:09.253Z,1035.79
2019-01-04T00:48:09.161Z,1035.79
2019-01-04T00:49:09.086Z,1035.76
2019-01-04T00:50:08.988Z,1035.76
2019-01-04T00:51:08.900Z,1035.72
2019-01-04T00:52:08.838Z,1035.72
2019-01-04T00:53:08.733Z,1035.73
2019-01-04T00:54:08.641Z,1035.69
2019-01-04T00:55:08.565Z,1035.66
2019-01-04T00:56:08.470Z,1035.67
2019-01-04T00:57:08.404Z,1035.72
2019-01-04T00:58:08.299Z,1035.70
2019-01-04T00:59:08.216Z,1035.68
2019-01-04T01:00:08.132Z,1035.68
2019-01-04T01:01:08.038Z,1035.72
2019-01-04T01:02:07.969Z,1035.69
2019-01-04T01:03:07.876Z,1035.72
2019-01-04T01:04:07.789Z,1035.74
2019-01-04T01:05:07.695Z,1035.78
2019-01-04T01:06:07.617Z,1035.77
2019-01-04T01:07:07.536Z,1035.85
2019-01-04T01:08:07.436Z,1035.84
2019-01-04T01:09:07.361Z,1035.79
2019-01-04T01:10:07.270Z,1035.80
2019-01-04T01:11:07.182Z,1035.76
2019-01-04T01:12:07.113Z,1035.76
2019-01-04T01:13:07.006Z,1035.69
2019-01-04T01:14:06.920Z,1035.71
2019-01-04T01:15:06.845Z,1035.64
2019-01-04T01:16:06.749Z,1035.65
2019-01-04T01:17:06.683Z,1035.67
2019-01-04T01:18:06.583Z,1035.67
2019-01-04T01:19:06.492Z,1035.64
2019-01-04T01:20:06.410Z,1035.63
2019-01-04T01:21:06.318Z,1035.64
2019-01-04T01:22:06.238Z,1035.60
2019-01-04T01:23:06.161Z,1035.65
2019-01-04T01:24:06.070Z,1035.65
2019-01-04T01:25:05.975Z,1035.67
2019-01-04T01:26:05.899Z,1035.71
2019-01-04T01:27:05.802Z,1035.68
2019-01-04T01:28:05.838Z,1035.65
2019-01-04T01:29:05.636Z,1035.67
2019-01-04T01:30:05.543Z,1035.67
2019-01-04T01:31:05.458Z,1035.65
2019-01-04T01:32:05.378Z,1035.69
2019-01-04T01:33:05.311Z,1035.68
2019-01-04T01:34:05.199Z,1035.70
2019-01-04T01:35:05.127Z,1035.71
2019-01-04T01:36:05.030Z,1035.71
2019-01-04T01:37:04.951Z,1035.69
2019-01-04T01:38:04.856Z,1035.69
2019-01-04T01:39:04.786Z,1035.68
2019-01-04T01:40:04.693Z,1035.66
2019-01-04T01:41:04.598Z,1035.65
2019-01-04T01:42:04.511Z,1035.68
2019-01-04T01:43:04.433Z,1035.68
2019-01-04T01:44:04.355Z,1035.70
2019-01-04T01:45:04.253Z,1035.72
2019-01-04T01:46:04.175Z,1035.73
2019-01-04T01:47:04.082Z,1035.75
2019-01-04T01:48:03.998Z,1035.76
2019-01-04T01:49:03.933Z,1035.80
2019-01-04T01:50:03.822Z,1035.82
2019-01-04T01:51:03.737Z,1035.81
2019-01-04T01:52:03.657Z,1035.81
2019-01-04T01:53:03.576Z,1035.83
2019-01-04T01:54:03.503Z,1035.82
2019-01-04T01:55:03.403Z,1035.89
2019-01-04T01:56:03.306Z,1035.87
2019-01-04T01:57:03.230Z,1035.86
2019-01-04T01:58:03.134Z,1035.89
2019-01-04T01:59:03.050Z,1035.91
2019-01-04T02:00:02.987Z,1035.90
2019-01-04T02:01:02.876Z,1035.91
2019-01-04T02:02:02.792Z,1035.85
2019-01-04T02:03:02.712Z,1035.89
2019-01-04T02:04:02.620Z,1035.85
2019-01-04T02:05:02.545Z,1035.85
2019-01-04T02:06:02.454Z,1035.85
2019-01-04T02:07:02.359Z,1035.85
2019-01-04T02:08:02.271Z,1035.90
2019-01-04T02:09:07.257Z,1035.91
2019-01-04T02:10:02.117Z,1035.85
2019-01-04T02:11:02.021Z,1035.85
2019-01-04T02:12:01.928Z,1035.92
2019-01-04T02:13:01.847Z,1035.93
2019-01-04T02:14:01.759Z,1035.97
2019-01-04T02:15:01.732Z,1036.01
2019-01-04T02:16:01.584Z,1035.99
2019-01-04T02:17:01.501Z,1036.03
2019-01-04T02:18:01.410Z,1036.05
2019-01-04T02:19:01.328Z,1036.04
2019-01-04T02:20:01.258Z,1036.02
2019-01-04T02:21:01.152Z,1036.05
2019-01-04T02:22:01.065Z,1036.05
2019-01-04T02:23:00.985Z,1035.99
2019-01-04T02:24:00.893Z,1036.01
2019-01-04T02:25:00.826Z,1035.98
2019-01-04T02:26:00.737Z,1035.98
2019-01-04T02:27:00.633Z,1035.93
2019-01-04T02:28:00.554Z,1035.98
2019-01-04T02:29:00.468Z,1035.96
2019-01-04T02:30:00.684Z,1035.95
2019-01-04T02:31:00.295Z,1035.93
2019-01-04T02:32:00.203Z,1035.94
2019-01-04T02:33:00.125Z,1035.95
2019-01-04T02:34:00.032Z,1035.91
2019-01-04T02:34:59.947Z,1035.90
2019-01-04T02:35:59.873Z,1035.88
2019-01-04T02:36:59.778Z,1035.86
2019-01-04T02:37:59.691Z,1035.88
2019-01-04T02:38:59.604Z,1035.87
2019-01-04T02:39:59.514Z,1035.80
2019-01-04T02:40:59.449Z,1035.80
2019-01-04T02:41:59.352Z,1035.79
2019-01-04T02:42:59.270Z,1035.82
2019-01-04T02:43:59.170Z,1035.72
2019-01-04T02:44:59.090Z,1035.74
2019-01-04T02:45:59.009Z,1035.75
2019-01-04T02:46:58.915Z,1035.75
2019-01-04T02:47:58.823Z,1035.76
2019-01-04T02:48:58.736Z,1035.75
2019-01-04T02:49:58.652Z,1035.80
2019-01-04T02:50:58.614Z,1035.71
2019-01-04T02:51:58.483Z,1035.69
2019-01-04T02:52:58.396Z,1035.71
2019-01-04T02:53:58.304Z,1035.73
2019-01-04T02:54:58.217Z,1035.78
2019-01-04T02:55:58.152Z,1035.83
2019-01-04T02:56:58.050Z,1035.87
2019-01-04T02:57:57.960Z,1035.88
2019-01-04T02:58:57.884Z,1035.86
2019-01-04T02:59:57.783Z,1035.84
2019-01-04T03:00:57.721Z,1035.83
2019-01-04T03:01:57.616Z,1035.81
2019-01-04T03:02:57.532Z,1035.79
2019-01-04T03:03:57.438Z,1035.81
2019-01-04T03:04:57.359Z,1035.75
2019-01-04T03:05:57.313Z,1035.71
2019-01-04T03:06:57.188Z,1035.73
2019-01-04T03:07:57.152Z,1035.71
2019-01-04T03:08:57.014Z,1035.74
2019-01-04T03:09:56.924Z,1035.72
2019-01-04T03:10:56.834Z,1035.75
2019-01-04T03:11:56.769Z,1035.73
2019-01-04T03:12:56.662Z,1035.74
2019-01-04T03:13:56.573Z,1035.73
2019-01-04T03:14:56.497Z,1035.69
2019-01-04T03:15:56.401Z,1035.75
2019-01-04T03:16:56.333Z,1035.69
2019-01-04T03:17:56.229Z,1035.69
2019-01-04T03:18:56.149Z,1035.68
2019-01-04T03:19:56.056Z,1035.73
2019-01-04T03:20:55.978Z,1035.69
2019-01-04T03:21:55.895Z,1035.66
2019-01-04T03:22:55.802Z,1035.64
2019-01-04T03:23:55.708Z,1035.67
2019-01-04T03:24:55.629Z,1035.65
2019-01-04T03:25:55.534Z,1035.67
2019-01-04T03:26:55.470Z,1035.67
2019-01-04T03:27:55.367Z,1035.65
2019-01-04T03:28:55.282Z,1035.70
2019-01-04T03:29:55.189Z,1035.64
2019-01-04T03:30:55.112Z,1035.71
2019-01-04T03:31:55.032Z,1035.69
2019-01-04T03:32:54.940Z,1035.68
2019-01-04T03:33:54.844Z,1035.68
2019-01-04T03:34:54.763Z,1035.66
2019-01-04T03:35:54.679Z,1035.65
2019-01-04T03:36:54.619Z,1035.65
2019-01-04T03:37:54.503Z,1035.65
2019-01-04T03:38:54.443Z,1035.63
2019-01-04T03:39:54.322Z,1035.64
2019-01-04T03:40:54.240Z,1035.65
2019-01-04T03:41:54.165Z,1035.64
2019-01-04T03:42:54.090Z,1035.66
2019-01-04T03:43:53.980Z,1035.65
2019-01-04T03:44:53.900Z,1035.70
2019-01-04T03:45:53.808Z,1035.62
2019-01-04T03:46:53.734Z,1035.64
2019-01-04T03:47:53.650Z,1035.67
2019-01-04T03:48:53.554Z,1035.66
2019-01-04T03:49:53.461Z,1035.62
2019-01-04T03:50:53.375Z,1035.62
2019-01-04T03:51:53.315Z,1035.59
2019-01-04T03:52:53.225Z,1035.58
2019-01-04T03:53:53.117Z,1035.54
2019-01-04T03:54:53.039Z,1035.53
2019-01-04T03:55:52.948Z,1035.53
2019-01-04T03:56:52.868Z,1035.51
2019-01-04T03:57:52.783Z,1035.50
2019-01-04T03:58:52.712Z,1035.52
2019-01-04T03:59:52.600Z,1035.51
2019-01-04T04:00:52.517Z,1035.49
2019-01-04T04:01:52.426Z,1035.48
2019-01-04T04:02:52.360Z,1035.53
2019-01-04T04:03:52.255Z,1035.48
2019-01-04T04:04:52.172Z,1035.42
2019-01-04T04:05:52.077Z,1035.46
2019-01-04T04:06:52.002Z,1035.45
2019-01-04T04:07:51.922Z,1035.47
2019-01-04T04:08:51.832Z,1035.48
2019-01-04T04:09:51.741Z,1035.45
2019-01-04T04:10:51.651Z,1035.42
2019-01-04T04:11:51.570Z,1035.41
2019-01-04T04:12:51.504Z,1035.37
2019-01-04T04:13:51.398Z,1035.36
2019-01-04T04:14:51.308Z,1035.30
2019-01-04T04:15:51.217Z,1035.32
2019-01-04T04:16:51.148Z,1035.29
2019-01-04T04:17:51.043Z,1035.31
2019-01-04T04:18:50.979Z,1035.28
2019-01-04T04:19:50.872Z,1035.31
2019-01-04T04:20:50.790Z,1035.30
2019-01-04T04:21:50.698Z,1035.37
2019-01-04T04:22:50.631Z,1035.36
2019-01-04T04:23:50.537Z,1035.37
2019-01-04T04:24:50.446Z,1035.38
2019-01-04T04:25:50.354Z,1035.36
2019-01-04T04:26:50.272Z,1035.33
2019-01-04T04:27:50.188Z,1035.27
2019-01-04T04:28:50.111Z,1035.24
2019-01-04T04:29:50.006Z,1035.24
2019-01-04T04:30:49.919Z,1035.23
2019-01-04T04:31:49.838Z,1035.27
2019-01-04T04:32:49.748Z,1035.30
2019-01-04T04:33:49.678Z,1035.27
2019-01-04T04:34:49.583Z,1035.25
2019-01-04T04:35:49.499Z,1035.30
2019-01-04T04:36:49.409Z,1035.28
2019-01-04T04:37:49.318Z,1035.31
2019-01-04T04:38:49.245Z,1035.33
2019-01-04T04:39:49.142Z,1035.36
2019-01-04T04:40:49.060Z,1035.36
2019-01-04T04:41:48.971Z,1035.32
2019-01-04T04:42:48.883Z,1035.38
2019-01-04T04:43:48.916Z,1035.42
2019-01-04T04:44:48.708Z,1035.41
2019-01-04T04:45:48.622Z,1035.40
2019-01-04T04:46:48.542Z,1035.41
2019-01-04T04:47:48.450Z,1035.35
2019-01-04T04:48:48.369Z,1035.35
2019-01-04T04:49:48.296Z,1035.39
2019-01-04T04:50:48.198Z,1035.38
2019-01-04T04:51:48.105Z,1035.31
2019-01-04T04:52:48.023Z,1035.38
2019-01-04T04:53:47.932Z,1035.36
2019-01-04T04:54:47.897Z,1035.38
2019-01-04T04:55:47.760Z,1035.39
2019-01-04T04:56:47.735Z,1035.38
2019-01-04T04:57:47.591Z,1035.38
2019-01-04T04:58:47.506Z,1035.43
2019-01-04T04:59:47.430Z,1035.39
2019-01-04T05:00:47.340Z,1035.41
2019-01-04T05:01:47.257Z,1035.42
2019-01-04T05:02:47.163Z,1035.39
2019-01-04T05:03:47.071Z,1035.44
2019-01-04T05:04:46.999Z,1035.41
2019-01-04T05:05:46.901Z,1035.37
2019-01-04T05:06:46.816Z,1035.38
2019-01-04T05:07:46.729Z,1035.32
2019-01-04T05:08:46.644Z,1035.33
2019-01-04T05:09:46.579Z,1035.33
2019-01-04T05:10:46.463Z,1035.33
2019-01-04T05:11:46.392Z,1035.31
2019-01-04T05:12:46.295Z,1035.30
2019-01-04T05:13:46.205Z,1035.28
2019-01-04T05:14:46.124Z,1035.23
2019-01-04T05:15:46.057Z,1035.28
2019-01-04T05:16:45.948Z,1035.27
2019-01-04T05:17:45.864Z,1035.23
2019-01-04T05:18:45.772Z,1035.23
2019-01-04T05:19:45.692Z,1035.21
2019-01-04T05:20:45.639Z,1035.16
2019-01-04T05:21:45.520Z,1035.16
2019-01-04T05:22:45.427Z,1035.13
2019-01-04T05:23:45.348Z,1035.12
2019-01-04T05:24:45.256Z,1035.14
2019-01-04T05:25:45.185Z,1035.18
2019-01-04T05:26:45.088Z,1035.19
2019-01-04T05:27:44.997Z,1035.25
2019-01-04T05:28:44.910Z,1035.23
2019-01-04T05:29:44.836Z,1035.27
2019-01-04T05:30:44.751Z,1035.29
2019-01-04T05:31:44.668Z,1035.35
2019-01-04T05:32:44.567Z,1035.34
2019-01-04T05:33:44.484Z,1035.38
2019-01-04T05:34:44.392Z,1035.38
2019-01-04T05:35:44.321Z,1035.36
2019-01-04T05:36:44.229Z,1035.39
2019-01-04T05:37:44.153Z,1035.40
2019-01-04T05:38:44.047Z,1035.41
2019-01-04T05:39:43.967Z,1035.39
2019-01-04T05:40:43.890Z,1035.37
2019-01-04T05:41:43.796Z,1035.36
2019-01-04T05:42:43.704Z,1035.32
2019-01-04T05:43:43.620Z,1035.30
2019-01-04T05:44:43.527Z,1035.32
2019-01-04T05:45:43.458Z,1035.33
2019-01-04T05:46:43.373Z,1035.35
2019-01-04T05:47:43.272Z,1035.34
2019-01-04T05:48:43.191Z,1035.35
2019-01-04T05:49:43.103Z,1035.35
2019-01-04T05:50:43.028Z,1035.41
2019-01-04T05:51:42.940Z,1035.38
2019-01-04T05:52:42.840Z,1035.37
2019-01-04T05:53:42.763Z,1035.36
2019-01-04T05:54:42.671Z,1035.35
2019-01-04T05:55:42.586Z,1035.43
2019-01-04T05:56:42.512Z,1035.40
2019-01-04T05:57:42.423Z,1035.43
2019-01-04T05:58:42.319Z,1035.45
2019-01-04T05:59:42.242Z,1035.41
2019-01-04T06:00:42.154Z,1035.38
2019-01-04T06:01:42.079Z,1035.35
2019-01-04T06:02:41.987Z,1035.30
2019-01-04T06:03:41.890Z,1035.26
2019-01-04T06:04:41.805Z,1035.26
2019-01-04T06:05:41.727Z,1035.24
2019-01-04T06:06:41.661Z,1035.21
2019-01-04T06:07:41.554Z,1035.19
2019-01-04T06:08:41.458Z,1035.16
2019-01-04T06:09:41.378Z,1035.17
2019-01-04T06:10:41.286Z,1035.17
2019-01-04T06:11:41.224Z,1035.19
2019-01-04T06:12:41.114Z,1035.11
2019-01-04T06:13:42.034Z,1035.13
2019-01-04T06:14:40.943Z,1035.13
2019-01-04T06:15:40.874Z,1035.12
2019-01-04T06:16:40.796Z,1035.15
2019-01-04T06:17:40.687Z,1035.15
2019-01-04T06:18:40.595Z,1035.21
2019-01-04T06:19:40.519Z,1035.15
2019-01-04T06:20:40.427Z,1035.14
2019-01-04T06:21:40.342Z,1035.10
2019-01-04T06:22:40.259Z,1035.15
2019-01-04T06:23:40.173Z,1035.15
2019-01-04T06:24:40.103Z,1035.18
2019-01-04T06:25:40.002Z,1035.16
2019-01-04T06:26:39.944Z,1035.16
2019-01-04T06:27:39.836Z,1035.17
2019-01-04T06:28:39.737Z,1035.16
2019-01-04T06:29:39.644Z,1035.12
2019-01-04T06:30:39.561Z,1035.15
2019-01-04T06:31:39.477Z,1035.15
2019-01-04T06:32:39.399Z,1035.09
2019-01-04T06:33:39.305Z,1035.09
2019-01-04T06:34:39.213Z,1035.09
2019-01-04T06:35:40.135Z,1035.09
2019-01-04T06:36:39.040Z,1035.06
2019-01-04T06:37:38.972Z,1035.08
2019-01-04T06:38:38.865Z,1035.05
2019-01-04T06:39:38.787Z,1034.99
2019-01-04T06:40:38.692Z,1034.95
2019-01-04T06:41:38.605Z,1034.93
2019-01-04T06:42:38.543Z,1034.89
2019-01-04T06:43:38.434Z,1034.92
2019-01-04T06:44:38.348Z,1034.96
2019-01-04T06:45:38.268Z,1034.96
2019-01-04T06:46:38.189Z,1034.96
2019-01-04T06:47:38.101Z,1034.93
2019-01-04T06:48:38.021Z,1034.95
2019-01-04T06:49:37.919Z,1034.87
2019-01-04T06:50:37.829Z,1034.89
2019-01-04T06:51:37.743Z,1034.88
2019-01-04T06:52:37.663Z,1034.85
2019-01-04T06:53:37.582Z,1034.84
2019-01-04T06:54:37.482Z,1034.81
2019-01-04T06:55:37.403Z,1034.86
2019-01-04T06:56:37.310Z,1034.91
2019-01-04T06:57:37.233Z,1035.03
2019-01-04T06:58:37.148Z,1035.07
2019-01-04T06:59:37.056Z,1035.10
2019-01-04T07:00:36.965Z,1035.08
2019-01-04T07:01:36.879Z,1035.12
2019-01-04T07:02:36.800Z,1035.13
2019-01-04T07:03:36.720Z,1035.11
2019-01-04T07:04:36.618Z,1035.11
2019-01-04T07:05:36.537Z,1035.11
2019-01-04T07:06:36.448Z,1035.12
2019-01-04T07:07:36.365Z,1035.15
2019-01-04T07:08:36.295Z,1035.09
2019-01-04T07:09:36.185Z,1035.13
2019-01-04T07:10:36.101Z,1035.14
2019-01-04T07:11:36.020Z,1035.18
2019-01-04T07:12:35.930Z,1035.16
2019-01-04T07:13:35.854Z,1035.08
2019-01-04T07:14:35.760Z,1035.12
2019-01-04T07:15:35.670Z,1035.15
2019-01-04T07:16:35.583Z,1035.17
2019-01-04T07:17:35.500Z,1035.21
2019-01-04T07:18:35.432Z,1035.19
2019-01-04T07:19:35.336Z,1035.20
2019-01-04T07:20:35.235Z,1035.25
2019-01-04T07:21:35.158Z,1035.21
2019-01-04T07:22:35.067Z,1035.22
2019-01-04T07:23:34.982Z,1035.20
2019-01-04T07:24:34.905Z,1035.15
2019-01-04T07:25:34.813Z,1035.18
2019-01-04T07:26:34.723Z,1035.18
2019-01-04T07:27:34.639Z,1035.16
2019-01-04T07:28:34.546Z,1035.14
2019-01-04T07:29:34.480Z,1035.15
2019-01-04T07:30:34.375Z,1035.16
2019-01-04T07:31:34.290Z,1035.22
2019-01-04T07:32:34.209Z,1035.21
2019-01-04T07:33:34.124Z,1035.26
2019-01-04T07:34:34.044Z,1035.25
2019-01-04T07:35:33.949Z,1035.28
2019-01-04T07:36:33.860Z,1035.25
2019-01-04T07:37:33.775Z,1035.24
2019-01-04T07:38:33.686Z,1035.19
2019-01-04T07:39:33.630Z,1035.22
2019-01-04T07:40:33.759Z,1035.20
2019-01-04T07:41:33.432Z,1035.19
2019-01-04T07:42:33.339Z,1035.15
2019-01-04T07:43:33.261Z,1035.13
2019-01-04T07:44:33.185Z,1035.19
2019-01-04T07:45:33.087Z,1035.25
2019-01-04T07:46:32.994Z,1035.28
2019-01-04T07:47:32.929Z,1035.30
2019-01-04T07:48:32.823Z,1035.32
2019-01-04T07:49:32.757Z,1035.34
2019-01-04T07:50:32.651Z,1035.33
2019-01-04T07:51:32.569Z,1035.33
2019-01-04T07:52:32.475Z,1035.31
2019-01-04T07:53:32.395Z,1035.30
2019-01-04T07:54:32.322Z,1035.35
2019-01-04T07:55:32.225Z,1035.34
2019-01-04T07:56:32.131Z,1035.30
2019-01-04T07:57:32.050Z,1035.28
2019-01-04T07:58:31.958Z,1035.27
2019-01-04T07:59:31.908Z,1035.25
2019-01-04T08:00:31.786Z,1035.29
2019-01-04T08:01:31.716Z,1035.28
2019-01-04T08:02:31.619Z,1035.29
2019-01-04T08:03:31.526Z,1035.29
2019-01-04T08:04:31.438Z,1035.27
2019-01-04T08:05:31.378Z,1035.27
2019-01-04T08:06:31.269Z,1035.25
2019-01-04T08:07:31.178Z,1035.25
2019-01-04T08:08:31.104Z,1035.29
2019-01-04T08:09:31.004Z,1035.32
2019-01-04T08:10:30.931Z,1035.32
2019-01-04T08:11:30.837Z,1035.36
2019-01-04T08:12:30.744Z,1035.38
2019-01-04T08:13:30.657Z,1035.39
2019-01-04T08:14:30.578Z,1035.45
2019-01-04T08:15:30.497Z,1035.43
2019-01-04T08:16:30.394Z,1035.41
2019-01-04T08:17:30.316Z,1035.33
2019-01-04T08:18:30.223Z,1035.34
2019-01-04T08:19:30.147Z,1035.29
2019-01-04T08:20:30.066Z,1035.30
2019-01-04T08:21:29.963Z,1035.28
2019-01-04T08:22:29.884Z,1035.26
2019-01-04T08:23:29.791Z,1035.29
2019-01-04T08:24:29.709Z,1035.30
2019-01-04T08:25:30.643Z,1035.36
2019-01-04T08:26:29.531Z,1035.43
2019-01-04T08:27:29.447Z,1035.44
2019-01-04T08:28:29.367Z,1035.43
2019-01-04T08:29:29.270Z,1035.37
2019-01-04T08:30:29.205Z,1035.38
2019-01-04T08:31:29.099Z,1035.42
2019-01-04T08:32:29.017Z,1035.42
2019-01-04T08:33:28.932Z,1035.48
2019-01-04T08:34:28.843Z,1035.48
2019-01-04T08:35:28.764Z,1035.50
2019-01-04T08:36:28.669Z,1035.42
2019-01-04T08:37:28.579Z,1035.47
2019-01-04T08:38:28.491Z,1035.40
2019-01-04T08:39:28.411Z,1035.38
2019-01-04T08:40:28.331Z,1035.36
2019-01-04T08:41:28.230Z,1035.40
2019-01-04T08:42:28.148Z,1035.44
2019-01-04T08:43:28.061Z,1035.46
2019-01-04T08:44:27.981Z,1035.42
2019-01-04T08:45:27.923Z,1035.41
2019-01-04T08:46:27.803Z,1035.39
2019-01-04T08:47:27.719Z,1035.47
2019-01-04T08:48:27.627Z,1035.42
2019-01-04T08:49:27.541Z,1035.44
2019-01-04T08:50:27.459Z,1035.42
2019-01-04T08:51:27.380Z,1035.37
2019-01-04T08:52:27.282Z,1035.35
2019-01-04T08:53:27.200Z,1035.37
2019-01-04T08:54:27.109Z,1035.34
2019-01-04T08:55:27.021Z,1035.38
2019-01-04T08:56:26.956Z,1035.34
2019-01-04T08:57:26.849Z,1035.39
2019-01-04T08:58:26.777Z,1035.40
2019-01-04T08:59:26.679Z,1035.41
2019-01-04T09:00:26.596Z,1035.42
2019-01-04T09:01:26.522Z,1035.31
2019-01-04T09:02:26.418Z,1035.33
2019-01-04T09:03:26.338Z,1035.34
2019-01-04T09:04:26.245Z,1035.31
2019-01-04T09:05:26.158Z,1035.34
2019-01-04T09:06:26.096Z,1035.40
2019-01-04T09:07:25.988Z,1035.37
2019-01-04T09:08:25.909Z,1035.41
2019-01-04T09:09:25.816Z,1035.36
2019-01-04T09:10:25.735Z,1035.35
2019-01-04T09:11:25.663Z,1035.32
2019-01-04T09:12:25.560Z,1035.24
2019-01-04T09:13:25.479Z,1035.18
2019-01-04T09:14:25.382Z,1035.15
2019-01-04T09:15:25.299Z,1035.18
2019-01-04T09:16:25.239Z,1035.16
2019-01-04T09:17:25.127Z,1035.05
2019-01-04T09:18:25.058Z,1035.02
2019-01-04T09:19:24.966Z,1034.98
2019-01-04T09:20:24.872Z,1035.00
2019-01-04T09:21:24.799Z,1034.98
2019-01-04T09:22:24.703Z,1035.02
2019-01-04T09:23:24.614Z,1034.99
2019-01-04T09:24:24.531Z,1034.96
2019-01-04T09:25:24.439Z,1034.96
2019-01-04T09:26:24.367Z,1034.96
2019-01-04T09:27:24.275Z,1034.97
2019-01-04T09:28:24.181Z,1035.07
2019-01-04T09:29:24.096Z,1035.10
2019-01-04T09:30:24.016Z,1035.11
2019-01-04T09:31:23.943Z,1035.13
2019-01-04T09:32:23.839Z,1035.09
2019-01-04T09:33:23.757Z,1035.08
2019-01-04T09:34:23.667Z,1035.02
2019-01-04T09:35:23.579Z,1035.04
2019-01-04T09:36:23.516Z,1035.03
2019-01-04T09:37:23.415Z,1035.05
2019-01-04T09:38:23.328Z,1035.01
2019-01-04T09:39:23.236Z,1034.99
2019-01-04T09:40:23.157Z,1034.96
2019-01-04T09:41:23.087Z,1034.97
2019-01-04T09:42:22.986Z,1034.93
2019-01-04T09:43:22.897Z,1034.86
2019-01-04T09:44:22.816Z,1034.90
2019-01-04T09:45:22.721Z,1034.95
2019-01-04T09:46:22.643Z,1034.93
2019-01-04T09:47:22.566Z,1034.93
2019-01-04T09:48:22.473Z,1035.03
2019-01-04T09:49:22.378Z,1034.94
2019-01-04T09:50:22.301Z,1034.94
2019-01-04T09:51:22.207Z,1034.90
2019-01-04T09:52:22.137Z,1034.89
2019-01-04T09:53:22.041Z,1034.86
2019-01-04T09:54:21.953Z,1034.81
2019-01-04T09:55:21.864Z,1034.78
2019-01-04T09:56:21.784Z,1034.78
2019-01-04T09:57:23.611Z,1034.76
2019-01-04T09:58:21.607Z,1034.73
2019-01-04T09:59:21.532Z,1034.72
2019-01-04T10:00:21.435Z,1034.68
2019-01-04T10:01:21.356Z,1034.68
2019-01-04T10:02:21.285Z,1034.70
2019-01-04T10:03:21.178Z,1034.67
2019-01-04T10:04:21.095Z,1034.71
2019-01-04T10:05:21.014Z,1034.75
2019-01-04T10:06:20.922Z,1034.68
2019-01-04T10:07:20.850Z,1034.68
2019-01-04T10:08:20.760Z,1034.67
2019-01-04T10:09:20.663Z,1034.75
2019-01-04T10:10:20.586Z,1034.77
2019-01-04T10:11:20.495Z,1034.72
2019-01-04T10:12:20.423Z,1034.69
2019-01-04T10:13:20.327Z,1034.70
2019-01-04T10:14:20.239Z,1034.72
2019-01-04T10:15:20.153Z,1034.67
2019-01-04T10:16:20.072Z,1034.61
2019-01-04T10:17:19.995Z,1034.57
2019-01-04T10:18:19.902Z,1034.51
2019-01-04T10:19:19.808Z,1034.49
2019-01-04T10:20:19.730Z,1034.40
2019-01-04T10:21:19.632Z,1034.44
2019-01-04T10:22:19.693Z,1034.44
2019-01-04T10:23:19.466Z,1034.51
2019-01-04T10:24:19.386Z,1034.54
2019-01-04T10:25:19.294Z,1034.41
2019-01-04T10:26:19.215Z,1034.39
2019-01-04T10:27:19.124Z,1034.40
2019-01-04T10:28:19.061Z,1034.45
2019-01-04T10:29:18.954Z,1034.42
2019-01-04T10:30:18.877Z,1034.35
2019-01-04T10:31:18.781Z,1034.37
2019-01-04T10:32:18.704Z,1034.37
2019-01-04T10:33:18.624Z,1034.27
2019-01-04T10:34:18.530Z,1034.32
2019-01-04T10:35:18.437Z,1034.29
2019-01-04T10:36:18.357Z,1034.34
2019-01-04T10:37:18.267Z,1034.35
2019-01-04T10:38:18.193Z,1034.30
2019-01-04T10:39:18.101Z,1034.29
2019-01-04T10:40:18.014Z,1034.33
2019-01-04T10:41:17.922Z,1034.32
2019-01-04T10:42:17.846Z,1034.31
2019-01-04T10:43:17.765Z,1034.29
2019-01-04T10:44:17.677Z,1034.21
2019-01-04T10:45:17.582Z,1034.21
2019-01-04T10:46:17.501Z,1034.24
2019-01-04T10:47:17.409Z,1034.21
2019-01-04T10:48:17.353Z,1034.20
2019-01-04T10:49:17.246Z,1034.16
2019-01-04T10:50:17.156Z,1034.14
2019-01-04T10:51:17.068Z,1034.10
2019-01-04T10:52:16.994Z,1034.11
2019-01-04T10:53:16.897Z,1034.02
2019-01-04T10:54:16.828Z,1033.96
2019-01-04T10:55:16.734Z,1033.97
2019-01-04T10:56:16.644Z,1033.93
2019-01-04T10:57:16.589Z,1033.97
2019-01-04T10:58:16.475Z,1033.99
2019-01-04T10:59:16.399Z,1033.99
2019-01-04T11:00:16.309Z,1033.97
2019-01-04T11:01:16.214Z,1033.94
2019-01-04T11:02:16.136Z,1033.91
2019-01-04T11:03:16.045Z,1033.92
2019-01-04T11:04:15.981Z,1033.90
2019-01-04T11:05:15.875Z,1033.87
2019-01-04T11:06:15.797Z,1033.85
2019-01-04T11:07:15.705Z,1033.83
2019-01-04T11:08:15.623Z,1033.84
2019-01-04T11:09:15.551Z,1033.78
2019-01-04T11:10:15.448Z,1033.72
2019-01-04T11:11:15.360Z,1033.66
2019-01-04T11:12:15.956Z,1033.63
2019-01-04T11:13:15.188Z,1033.69
2019-01-04T11:14:15.116Z,1033.65
2019-01-04T11:15:15.026Z,1033.70
2019-01-04T11:16:14.934Z,1033.77
2019-01-04T11:17:14.866Z,1033.75
2019-01-04T11:18:14.767Z,1033.77
2019-01-04T11:19:14.708Z,1033.72
2019-01-04T11:20:14.624Z,1033.70
2019-01-04T11:21:14.502Z,1033.65
2019-01-04T11:22:14.418Z,1033.59
2019-01-04T11:23:14.339Z,1033.63
2019-01-04T11:24:14.246Z,1033.56
2019-01-04T11:25:14.177Z,1033.58
2019-01-04T11:26:14.082Z,1033.59
2019-01-04T11:27:13.994Z,1033.60
2019-01-04T11:28:13.904Z,1033.57
2019-01-04T11:29:13.824Z,1033.56
2019-01-04T11:30:13.744Z,1033.58
2019-01-04T11:31:13.646Z,1033.57
2019-01-04T11:32:13.564Z,1033.54
2019-01-04T11:33:13.470Z,1033.58
2019-01-04T11:34:13.405Z,1033.53
2019-01-04T11:35:13.337Z,1033.58
2019-01-04T11:36:13.216Z,1033.63
2019-01-04T11:37:13.128Z,1033.58
2019-01-04T11:38:13.050Z,1033.58
2019-01-04T11:39:12.958Z,1033.58
2019-01-04T11:40:12.895Z,1033.66
2019-01-04T11:41:12.786Z,1033.68
2019-01-04T11:42:12.708Z,1033.70
2019-01-04T11:43:12.623Z,1033.68
2019-01-04T11:44:12.547Z,1033.72
2019-01-04T11:45:12.463Z,1033.66
2019-01-04T11:46:12.371Z,1033.65
2019-01-04T11:47:12.282Z,1033.62
2019-01-04T11:48:12.185Z,1033.56
2019-01-04T11:49:12.104Z,1033.59
2019-01-04T11:50:12.013Z,1033.54
2019-01-04T11:51:11.941Z,1033.54
2019-01-04T11:52:11.845Z,1033.54
2019-01-04T11:53:11.754Z,1033.59
2019-01-04T11:54:11.668Z,1033.56
2019-01-04T11:55:11.587Z,1033.50
2019-01-04T11:56:11.510Z,1033.48
2019-01-04T11:57:11.410Z,1033.43
2019-01-04T11:58:11.329Z,1033.42
2019-01-04T11:59:11.238Z,1033.40
2019-01-04T12:00:11.157Z,1033.42
2019-01-04T12:01:11.085Z,1033.42
2019-01-04T12:02:10.987Z,1033.46
2019-01-04T12:03:10.898Z,1033.43
2019-01-04T12:04:10.812Z,1033.47